sensor_id;sensor_type;location;lat;lon;timestamp;temperature;humidity
1778;DHT22;886;50.082;8.222;2022-10-16T00:00:13;15.50;99.90
1778;DHT22;886;50.082;8.222;2022-10-16T00:02:40;15.50;99.90
1778;DHT22;886;50.082;8.222;2022-10-16T00:05:10;15.50;99.90
1778;DHT22;886;50.082;8.222;2022-10-16T00:07:40;15.50;99.90
1778;DHT22;886;50.082;8.222;2022-10-16T00:10:10;15.40;99.90
1778;DHT22;886;50.082;8.222;2022-10-16T00:12:40;15.40;99.90
1778;DHT22;886;50.082;8.222;2022-10-16T00:15:30;15.40;99.90
1778;DHT22;886;50.082;8.222;2022-10-16T00:17:59;15.30;99.90
1778;DHT22;886;50.082;8.222;2022-10-16T00:20:27;15.40;99.90
1778;DHT22;886;50.082;8.222;2022-10-16T00:22:54;15.40;99.90
1778;DHT22;886;50.082;8.222;2022-10-16T00:25:21;15.40;99.90
1778;DHT22;886;50.082;8.222;2022-10-16T00:27:54;15.40;99.90
1778;DHT22;886;50.082;8.222;2022-10-16T00:30:29;15.40;99.90
1778;DHT22;886;50.082;8.222;2022-10-16T00:32:56;15.40;99.90
1778;DHT22;886;50.082;8.222;2022-10-16T00:35:27;15.40;99.90
1778;DHT22;886;50.082;8.222;2022-10-16T00:38:04;15.30;99.90
1778;DHT22;886;50.082;8.222;2022-10-16T00:40:34;15.20;99.90
1778;DHT22;886;50.082;8.222;2022-10-16T00:43:02;15.30;99.90
1778;DHT22;886;50.082;8.222;2022-10-16T00:45:30;15.30;99.90
1778;DHT22;886;50.082;8.222;2022-10-16T00:48:06;15.20;99.90
1778;DHT22;886;50.082;8.222;2022-10-16T00:50:42;15.30;99.90
1778;DHT22;886;50.082;8.222;2022-10-16T00:53:10;15.30;99.90
1778;DHT22;886;50.082;8.222;2022-10-16T00:55:38;15.20;99.90
1778;DHT22;886;50.082;8.222;2022-10-16T00:58:11;15.20;99.90
1778;DHT22;886;50.082;8.222;2022-10-16T01:00:43;15.20;99.90
1778;DHT22;886;50.082;8.222;2022-10-16T01:03:25;15.20;99.90
1778;DHT22;886;50.082;8.222;2022-10-16T01:06:03;15.20;99.90
1778;DHT22;886;50.082;8.222;2022-10-16T01:08:42;15.30;99.90
1778;DHT22;886;50.082;8.222;2022-10-16T01:11:17;15.40;99.90
1778;DHT22;886;50.082;8.222;2022-10-16T01:13:54;15.20;99.90
1778;DHT22;886;50.082;8.222;2022-10-16T01:16:29;15.30;99.90
1778;DHT22;886;50.082;8.222;2022-10-16T01:19:07;15.30;99.90
1778;DHT22;886;50.082;8.222;2022-10-16T01:21:40;15.40;99.90
1778;DHT22;886;50.082;8.222;2022-10-16T01:24:17;15.30;99.90
1778;DHT22;886;50.082;8.222;2022-10-16T01:27:11;15.20;99.90
1778;DHT22;886;50.082;8.222;2022-10-16T01:29:48;15.30;99.90
1778;DHT22;886;50.082;8.222;2022-10-16T01:32:30;15.40;99.90
1778;DHT22;886;50.082;8.222;2022-10-16T01:35:05;15.40;99.90
1778;DHT22;886;50.082;8.222;2022-10-16T01:37:40;15.40;99.90
1778;DHT22;886;50.082;8.222;2022-10-16T01:40:16;15.40;99.90
1778;DHT22;886;50.082;8.222;2022-10-16T01:42:52;15.40;99.90
1778;DHT22;886;50.082;8.222;2022-10-16T01:45:22;15.40;99.90
1778;DHT22;886;50.082;8.222;2022-10-16T01:47:52;15.30;99.90
1778;DHT22;886;50.082;8.222;2022-10-16T01:50:20;15.20;99.90
1778;DHT22;886;50.082;8.222;2022-10-16T01:52:53;15.20;99.90
1778;DHT22;886;50.082;8.222;2022-10-16T01:55:28;15.20;99.90
1778;DHT22;886;50.082;8.222;2022-10-16T01:58:10;15.10;99.90
1778;DHT22;886;50.082;8.222;2022-10-16T02:00:43;15.20;99.90
1778;DHT22;886;50.082;8.222;2022-10-16T02:03:24;15.20;99.90
1778;DHT22;886;50.082;8.222;2022-10-16T02:05:53;15.30;99.90
1778;DHT22;886;50.082;8.222;2022-10-16T02:08:22;15.30;99.90
1778;DHT22;886;50.082;8.222;2022-10-16T02:10:51;15.40;99.90
1778;DHT22;886;50.082;8.222;2022-10-16T02:13:26;15.40;99.90
1778;DHT22;886;50.082;8.222;2022-10-16T02:16:06;15.40;99.90
1778;DHT22;886;50.082;8.222;2022-10-16T02:18:33;15.50;99.90
1778;DHT22;886;50.082;8.222;2022-10-16T02:21:04;15.40;99.90
1778;DHT22;886;50.082;8.222;2022-10-16T02:23:45;15.30;99.90
1778;DHT22;886;50.082;8.222;2022-10-16T02:26:31;15.30;99.90
1778;DHT22;886;50.082;8.222;2022-10-16T02:29:08;15.30;99.90
1778;DHT22;886;50.082;8.222;2022-10-16T02:31:46;15.30;99.90
1778;DHT22;886;50.082;8.222;2022-10-16T02:34:21;15.40;99.90
1778;DHT22;886;50.082;8.222;2022-10-16T02:36:49;15.40;99.90
1778;DHT22;886;50.082;8.222;2022-10-16T02:39:17;15.30;99.90
1778;DHT22;886;50.082;8.222;2022-10-16T02:41:50;15.30;99.90
1778;DHT22;886;50.082;8.222;2022-10-16T02:44:19;15.30;99.90
1778;DHT22;886;50.082;8.222;2022-10-16T02:46:46;15.20;99.90
1778;DHT22;886;50.082;8.222;2022-10-16T02:49:13;15.30;99.90
1778;DHT22;886;50.082;8.222;2022-10-16T02:51:40;15.30;99.90
1778;DHT22;886;50.082;8.222;2022-10-16T02:54:20;15.30;99.90
1778;DHT22;886;50.082;8.222;2022-10-16T02:56:47;15.30;99.90
1778;DHT22;886;50.082;8.222;2022-10-16T02:59:15;15.30;99.90
1778;DHT22;886;50.082;8.222;2022-10-16T03:01:56;15.40;99.90
1778;DHT22;886;50.082;8.222;2022-10-16T03:04:23;15.50;99.90
1778;DHT22;886;50.082;8.222;2022-10-16T03:06:53;15.40;99.90
1778;DHT22;886;50.082;8.222;2022-10-16T03:09:23;15.40;99.90
1778;DHT22;886;50.082;8.222;2022-10-16T03:11:50;15.40;99.90
1778;DHT22;886;50.082;8.222;2022-10-16T03:14:22;15.40;99.90
1778;DHT22;886;50.082;8.222;2022-10-16T03:16:50;15.50;99.90
1778;DHT22;886;50.082;8.222;2022-10-16T03:19:23;15.50;99.90
1778;DHT22;886;50.082;8.222;2022-10-16T03:21:59;15.40;99.90
1778;DHT22;886;50.082;8.222;2022-10-16T03:24:32;15.40;99.90
1778;DHT22;886;50.082;8.222;2022-10-16T03:27:04;15.40;99.90
1778;DHT22;886;50.082;8.222;2022-10-16T03:29:42;15.50;99.90
1778;DHT22;886;50.082;8.222;2022-10-16T03:32:15;15.40;99.90
1778;DHT22;886;50.082;8.222;2022-10-16T03:34:46;15.40;99.90
1778;DHT22;886;50.082;8.222;2022-10-16T03:37:13;15.30;99.90
1778;DHT22;886;50.082;8.222;2022-10-16T03:39:40;15.30;99.90
1778;DHT22;886;50.082;8.222;2022-10-16T03:42:07;15.30;99.90
1778;DHT22;886;50.082;8.222;2022-10-16T03:44:46;15.20;99.90
1778;DHT22;886;50.082;8.222;2022-10-16T03:47:18;15.20;99.90
1778;DHT22;886;50.082;8.222;2022-10-16T03:50:07;15.30;99.90
1778;DHT22;886;50.082;8.222;2022-10-16T03:52:34;15.30;99.90
1778;DHT22;886;50.082;8.222;2022-10-16T03:55:07;15.40;99.90
1778;DHT22;886;50.082;8.222;2022-10-16T03:57:34;15.40;99.90
1778;DHT22;886;50.082;8.222;2022-10-16T04:00:08;15.40;99.90
1778;DHT22;886;50.082;8.222;2022-10-16T04:02:36;15.40;99.90
1778;DHT22;886;50.082;8.222;2022-10-16T04:05:05;15.40;99.90
1778;DHT22;886;50.082;8.222;2022-10-16T04:07:36;15.40;99.90
1778;DHT22;886;50.082;8.222;2022-10-16T04:10:12;15.40;99.90
1778;DHT22;886;50.082;8.222;2022-10-16T04:12:39;15.50;99.90
1778;DHT22;886;50.082;8.222;2022-10-16T04:15:07;15.50;99.90
1778;DHT22;886;50.082;8.222;2022-10-16T04:17:37;15.50;99.90
1778;DHT22;886;50.082;8.222;2022-10-16T04:20:12;15.40;99.90
1778;DHT22;886;50.082;8.222;2022-10-16T04:22:42;15.40;99.90
1778;DHT22;886;50.082;8.222;2022-10-16T04:25:12;15.30;99.90
1778;DHT22;886;50.082;8.222;2022-10-16T04:27:45;15.30;99.90
1778;DHT22;886;50.082;8.222;2022-10-16T04:30:15;15.40;99.90
1778;DHT22;886;50.082;8.222;2022-10-16T04:32:48;15.40;99.90
1778;DHT22;886;50.082;8.222;2022-10-16T04:35:18;15.50;99.90
1778;DHT22;886;50.082;8.222;2022-10-16T04:37:45;15.50;99.90
1778;DHT22;886;50.082;8.222;2022-10-16T04:40:12;15.50;99.90
1778;DHT22;886;50.082;8.222;2022-10-16T04:42:40;15.50;99.90
1778;DHT22;886;50.082;8.222;2022-10-16T04:45:10;15.60;99.90
1778;DHT22;886;50.082;8.222;2022-10-16T04:47:42;15.60;99.90
1778;DHT22;886;50.082;8.222;2022-10-16T04:50:17;15.60;99.90
1778;DHT22;886;50.082;8.222;2022-10-16T04:52:44;15.60;99.90
1778;DHT22;886;50.082;8.222;2022-10-16T04:55:12;15.60;99.90
1778;DHT22;886;50.082;8.222;2022-10-16T04:57:39;15.50;99.90
1778;DHT22;886;50.082;8.222;2022-10-16T05:00:12;15.50;99.90
1778;DHT22;886;50.082;8.222;2022-10-16T05:02:39;15.50;99.90
1778;DHT22;886;50.082;8.222;2022-10-16T05:05:22;15.50;99.90
1778;DHT22;886;50.082;8.222;2022-10-16T05:07:55;15.40;99.90
1778;DHT22;886;50.082;8.222;2022-10-16T05:10:22;15.40;99.90
1778;DHT22;886;50.082;8.222;2022-10-16T05:12:52;15.40;99.90
1778;DHT22;886;50.082;8.222;2022-10-16T05:15:19;15.30;99.90
1778;DHT22;886;50.082;8.222;2022-10-16T05:17:46;15.30;99.90
1778;DHT22;886;50.082;8.222;2022-10-16T05:20:13;15.30;99.90
1778;DHT22;886;50.082;8.222;2022-10-16T05:22:42;15.40;99.90
1778;DHT22;886;50.082;8.222;2022-10-16T05:25:09;15.30;99.90
1778;DHT22;886;50.082;8.222;2022-10-16T05:27:38;15.30;99.90
1778;DHT22;886;50.082;8.222;2022-10-16T05:30:06;15.30;99.90
1778;DHT22;886;50.082;8.222;2022-10-16T05:32:41;15.40;99.90
1778;DHT22;886;50.082;8.222;2022-10-16T05:35:08;15.40;99.90
1778;DHT22;886;50.082;8.222;2022-10-16T05:37:45;15.40;99.90
1778;DHT22;886;50.082;8.222;2022-10-16T05:40:13;15.40;99.90
1778;DHT22;886;50.082;8.222;2022-10-16T05:42:43;15.30;99.90
1778;DHT22;886;50.082;8.222;2022-10-16T05:45:11;15.40;99.90
1778;DHT22;886;50.082;8.222;2022-10-16T05:47:42;15.30;99.90
1778;DHT22;886;50.082;8.222;2022-10-16T05:50:13;15.20;99.90
1778;DHT22;886;50.082;8.222;2022-10-16T05:52:53;15.30;99.90
1778;DHT22;886;50.082;8.222;2022-10-16T05:55:29;15.30;99.90
1778;DHT22;886;50.082;8.222;2022-10-16T05:57:56;15.30;99.90
1778;DHT22;886;50.082;8.222;2022-10-16T06:00:26;15.30;99.90
1778;DHT22;886;50.082;8.222;2022-10-16T06:02:53;15.30;99.90
1778;DHT22;886;50.082;8.222;2022-10-16T06:05:20;15.40;99.90
1778;DHT22;886;50.082;8.222;2022-10-16T06:07:47;15.40;99.90
1778;DHT22;886;50.082;8.222;2022-10-16T06:10:16;15.40;99.90
1778;DHT22;886;50.082;8.222;2022-10-16T06:12:43;15.40;99.90
1778;DHT22;886;50.082;8.222;2022-10-16T06:15:13;15.40;99.90
1778;DHT22;886;50.082;8.222;2022-10-16T06:17:40;15.30;99.90
1778;DHT22;886;50.082;8.222;2022-10-16T06:20:07;15.30;99.90
1778;DHT22;886;50.082;8.222;2022-10-16T06:22:34;15.40;99.90
1778;DHT22;886;50.082;8.222;2022-10-16T06:25:02;15.50;99.90
1778;DHT22;886;50.082;8.222;2022-10-16T06:27:44;15.60;99.90
1778;DHT22;886;50.082;8.222;2022-10-16T06:30:13;15.70;99.90
1778;DHT22;886;50.082;8.222;2022-10-16T06:32:43;15.70;99.90
1778;DHT22;886;50.082;8.222;2022-10-16T06:35:10;15.60;99.90
1778;DHT22;886;50.082;8.222;2022-10-16T06:37:37;15.40;99.90
1778;DHT22;886;50.082;8.222;2022-10-16T06:40:07;15.40;99.90
1778;DHT22;886;50.082;8.222;2022-10-16T06:42:39;15.30;99.90
1778;DHT22;886;50.082;8.222;2022-10-16T06:45:06;15.30;99.90
1778;DHT22;886;50.082;8.222;2022-10-16T06:47:37;15.30;99.90
1778;DHT22;886;50.082;8.222;2022-10-16T06:50:05;15.30;99.90
1778;DHT22;886;50.082;8.222;2022-10-16T06:52:36;15.40;99.90
1778;DHT22;886;50.082;8.222;2022-10-16T06:55:07;15.40;99.90
1778;DHT22;886;50.082;8.222;2022-10-16T06:57:34;15.40;99.90
1778;DHT22;886;50.082;8.222;2022-10-16T07:00:07;15.40;99.90
1778;DHT22;886;50.082;8.222;2022-10-16T07:02:35;15.40;99.90
1778;DHT22;886;50.082;8.222;2022-10-16T07:05:05;15.40;99.90
1778;DHT22;886;50.082;8.222;2022-10-16T07:07:33;15.50;99.90
1778;DHT22;886;50.082;8.222;2022-10-16T07:10:00;15.60;99.90
1778;DHT22;886;50.082;8.222;2022-10-16T07:12:39;15.60;99.90
1778;DHT22;886;50.082;8.222;2022-10-16T07:15:14;15.60;99.90
1778;DHT22;886;50.082;8.222;2022-10-16T07:17:44;15.70;99.90
1778;DHT22;886;50.082;8.222;2022-10-16T07:20:13;15.70;99.90
1778;DHT22;886;50.082;8.222;2022-10-16T07:22:40;15.70;99.90
1778;DHT22;886;50.082;8.222;2022-10-16T07:25:08;15.80;99.90
1778;DHT22;886;50.082;8.222;2022-10-16T07:27:41;15.80;99.90
1778;DHT22;886;50.082;8.222;2022-10-16T07:30:12;15.80;99.90
1778;DHT22;886;50.082;8.222;2022-10-16T07:32:45;15.80;99.90
1778;DHT22;886;50.082;8.222;2022-10-16T07:35:15;15.80;99.90
1778;DHT22;886;50.082;8.222;2022-10-16T07:37:45;15.70;99.90
1778;DHT22;886;50.082;8.222;2022-10-16T07:40:25;15.70;99.90
1778;DHT22;886;50.082;8.222;2022-10-16T07:42:53;15.70;99.90
1778;DHT22;886;50.082;8.222;2022-10-16T07:45:32;15.70;99.90
1778;DHT22;886;50.082;8.222;2022-10-16T07:48:02;15.80;99.90
1778;DHT22;886;50.082;8.222;2022-10-16T07:50:32;15.80;99.90
1778;DHT22;886;50.082;8.222;2022-10-16T07:53:01;15.90;99.90
1778;DHT22;886;50.082;8.222;2022-10-16T07:55:31;16.00;99.90
1778;DHT22;886;50.082;8.222;2022-10-16T07:58:06;16.00;99.90
1778;DHT22;886;50.082;8.222;2022-10-16T08:00:38;16.00;99.90
1778;DHT22;886;50.082;8.222;2022-10-16T08:03:05;16.00;99.90
1778;DHT22;886;50.082;8.222;2022-10-16T08:05:38;16.00;99.90
1778;DHT22;886;50.082;8.222;2022-10-16T08:08:14;16.00;99.90
1778;DHT22;886;50.082;8.222;2022-10-16T08:10:45;16.00;99.90
1778;DHT22;886;50.082;8.222;2022-10-16T08:13:15;16.10;99.90
1778;DHT22;886;50.082;8.222;2022-10-16T08:15:49;16.10;99.90
1778;DHT22;886;50.082;8.222;2022-10-16T08:18:16;16.10;99.90
1778;DHT22;886;50.082;8.222;2022-10-16T08:20:43;16.10;99.90
1778;DHT22;886;50.082;8.222;2022-10-16T08:23:24;16.00;99.90
1778;DHT22;886;50.082;8.222;2022-10-16T08:25:54;16.10;99.90
1778;DHT22;886;50.082;8.222;2022-10-16T08:28:24;16.20;99.90
1778;DHT22;886;50.082;8.222;2022-10-16T08:30:53;16.20;99.90
1778;DHT22;886;50.082;8.222;2022-10-16T08:33:20;16.20;99.90
1778;DHT22;886;50.082;8.222;2022-10-16T08:35:51;16.10;99.90
1778;DHT22;886;50.082;8.222;2022-10-16T08:38:19;16.10;99.90
1778;DHT22;886;50.082;8.222;2022-10-16T08:40:46;16.10;99.90
1778;DHT22;886;50.082;8.222;2022-10-16T08:43:32;16.20;99.90
1778;DHT22;886;50.082;8.222;2022-10-16T08:46:34;16.10;99.90
1778;DHT22;886;50.082;8.222;2022-10-16T08:49:11;16.10;99.90
1778;DHT22;886;50.082;8.222;2022-10-16T08:51:40;16.20;99.90
1778;DHT22;886;50.082;8.222;2022-10-16T08:54:23;16.30;99.90
1778;DHT22;886;50.082;8.222;2022-10-16T08:57:18;16.20;99.90
1778;DHT22;886;50.082;8.222;2022-10-16T08:59:50;16.20;99.90
1778;DHT22;886;50.082;8.222;2022-10-16T09:02:24;16.30;99.90
1778;DHT22;886;50.082;8.222;2022-10-16T09:05:09;16.30;99.90
1778;DHT22;886;50.082;8.222;2022-10-16T09:08:03;16.30;99.90
1778;DHT22;886;50.082;8.222;2022-10-16T09:10:45;16.30;99.90
1778;DHT22;886;50.082;8.222;2022-10-16T09:13:26;16.30;99.90
1778;DHT22;886;50.082;8.222;2022-10-16T09:16:13;16.30;99.90
1778;DHT22;886;50.082;8.222;2022-10-16T09:18:51;16.30;99.90
1778;DHT22;886;50.082;8.222;2022-10-16T09:21:24;16.30;99.90
1778;DHT22;886;50.082;8.222;2022-10-16T09:23:54;16.30;99.90
1778;DHT22;886;50.082;8.222;2022-10-16T09:26:21;16.40;99.90
1778;DHT22;886;50.082;8.222;2022-10-16T09:28:54;16.40;99.90
1778;DHT22;886;50.082;8.222;2022-10-16T09:31:22;16.50;99.90
1778;DHT22;886;50.082;8.222;2022-10-16T09:33:55;16.50;99.90
1778;DHT22;886;50.082;8.222;2022-10-16T09:36:39;16.60;99.90
1778;DHT22;886;50.082;8.222;2022-10-16T09:39:09;16.60;99.90
1778;DHT22;886;50.082;8.222;2022-10-16T09:41:40;16.60;99.90
1778;DHT22;886;50.082;8.222;2022-10-16T09:44:19;16.50;99.90
1778;DHT22;886;50.082;8.222;2022-10-16T09:47:01;16.50;99.90
1778;DHT22;886;50.082;8.222;2022-10-16T09:49:37;16.50;99.90
1778;DHT22;886;50.082;8.222;2022-10-16T09:52:05;16.50;99.90
1778;DHT22;886;50.082;8.222;2022-10-16T09:54:36;16.50;99.90
1778;DHT22;886;50.082;8.222;2022-10-16T09:57:06;16.60;99.90
1778;DHT22;886;50.082;8.222;2022-10-16T09:59:45;16.70;99.90
1778;DHT22;886;50.082;8.222;2022-10-16T10:02:14;16.80;99.90
1778;DHT22;886;50.082;8.222;2022-10-16T10:04:48;16.90;99.90
1778;DHT22;886;50.082;8.222;2022-10-16T10:07:26;17.10;99.90
1778;DHT22;886;50.082;8.222;2022-10-16T10:10:05;17.20;99.90
1778;DHT22;886;50.082;8.222;2022-10-16T10:12:51;17.20;99.90
1778;DHT22;886;50.082;8.222;2022-10-16T10:15:25;17.10;99.90
1778;DHT22;886;50.082;8.222;2022-10-16T10:17:57;17.20;99.90
1778;DHT22;886;50.082;8.222;2022-10-16T10:20:28;17.30;99.90
1778;DHT22;886;50.082;8.222;2022-10-16T10:23:20;17.30;99.90
1778;DHT22;886;50.082;8.222;2022-10-16T10:26:04;17.50;99.90
1778;DHT22;886;50.082;8.222;2022-10-16T10:28:58;17.50;99.90
1778;DHT22;886;50.082;8.222;2022-10-16T10:31:42;17.80;99.90
1778;DHT22;886;50.082;8.222;2022-10-16T10:34:26;17.90;99.90
1778;DHT22;886;50.082;8.222;2022-10-16T10:37:29;18.00;99.90
1778;DHT22;886;50.082;8.222;2022-10-16T10:40:17;17.90;99.90
1778;DHT22;886;50.082;8.222;2022-10-16T10:42:59;17.90;99.90
1778;DHT22;886;50.082;8.222;2022-10-16T10:45:38;18.00;99.90
1778;DHT22;886;50.082;8.222;2022-10-16T10:48:20;18.00;99.90
1778;DHT22;886;50.082;8.222;2022-10-16T10:51:04;18.10;99.90
1778;DHT22;886;50.082;8.222;2022-10-16T10:53:41;18.10;99.90
1778;DHT22;886;50.082;8.222;2022-10-16T10:56:24;18.10;99.90
1778;DHT22;886;50.082;8.222;2022-10-16T10:59:32;18.10;99.90
1778;DHT22;886;50.082;8.222;2022-10-16T11:02:13;18.00;99.90
1778;DHT22;886;50.082;8.222;2022-10-16T11:08:02;18.10;99.90
1778;DHT22;886;50.082;8.222;2022-10-16T11:10:45;18.10;99.90
1778;DHT22;886;50.082;8.222;2022-10-16T11:13:35;18.10;99.90
1778;DHT22;886;50.082;8.222;2022-10-16T11:16:25;18.40;99.90
1778;DHT22;886;50.082;8.222;2022-10-16T11:18:59;18.50;99.90
1778;DHT22;886;50.082;8.222;2022-10-16T11:21:39;18.50;99.90
1778;DHT22;886;50.082;8.222;2022-10-16T11:24:16;18.50;99.90
1778;DHT22;886;50.082;8.222;2022-10-16T11:27:09;18.50;99.90
1778;DHT22;886;50.082;8.222;2022-10-16T11:29:52;18.40;99.90
1778;DHT22;886;50.082;8.222;2022-10-16T11:32:32;18.50;99.90
1778;DHT22;886;50.082;8.222;2022-10-16T11:35:19;18.50;99.90
1778;DHT22;886;50.082;8.222;2022-10-16T11:37:53;18.50;99.90
1778;DHT22;886;50.082;8.222;2022-10-16T11:40:32;18.50;99.90
1778;DHT22;886;50.082;8.222;2022-10-16T11:43:08;18.60;99.90
1778;DHT22;886;50.082;8.222;2022-10-16T11:45:46;18.60;99.90
1778;DHT22;886;50.082;8.222;2022-10-16T11:48:26;18.60;99.90
1778;DHT22;886;50.082;8.222;2022-10-16T11:51:08;18.70;99.90
1778;DHT22;886;50.082;8.222;2022-10-16T11:53:43;18.70;99.90
1778;DHT22;886;50.082;8.222;2022-10-16T11:56:20;18.80;99.90
1778;DHT22;886;50.082;8.222;2022-10-16T11:58:54;18.80;99.90
1778;DHT22;886;50.082;8.222;2022-10-16T12:01:33;18.90;99.90
1778;DHT22;886;50.082;8.222;2022-10-16T12:04:22;18.90;99.90
1778;DHT22;886;50.082;8.222;2022-10-16T12:07:10;18.90;99.90
1778;DHT22;886;50.082;8.222;2022-10-16T12:09:41;18.90;99.90
1778;DHT22;886;50.082;8.222;2022-10-16T12:12:27;18.80;99.90
1778;DHT22;886;50.082;8.222;2022-10-16T12:15:21;18.80;99.90
1778;DHT22;886;50.082;8.222;2022-10-16T12:18:26;18.80;99.90
1778;DHT22;886;50.082;8.222;2022-10-16T12:20:55;18.70;99.90
1778;DHT22;886;50.082;8.222;2022-10-16T12:23:51;18.70;99.90
1778;DHT22;886;50.082;8.222;2022-10-16T12:26:27;18.70;99.90
1778;DHT22;886;50.082;8.222;2022-10-16T12:28:57;18.60;99.90
1778;DHT22;886;50.082;8.222;2022-10-16T12:31:55;18.50;99.90
1778;DHT22;886;50.082;8.222;2022-10-16T12:34:28;18.60;99.90
1778;DHT22;886;50.082;8.222;2022-10-16T12:37:14;18.60;99.90
1778;DHT22;886;50.082;8.222;2022-10-16T12:39:59;18.60;99.90
1778;DHT22;886;50.082;8.222;2022-10-16T12:42:47;18.60;99.90
1778;DHT22;886;50.082;8.222;2022-10-16T12:45:26;18.60;99.90
1778;DHT22;886;50.082;8.222;2022-10-16T12:47:57;18.60;99.90
1778;DHT22;886;50.082;8.222;2022-10-16T12:50:33;18.60;99.90
1778;DHT22;886;50.082;8.222;2022-10-16T12:53:18;18.50;99.90
1778;DHT22;886;50.082;8.222;2022-10-16T12:56:04;18.50;99.90
1778;DHT22;886;50.082;8.222;2022-10-16T12:58:49;18.50;99.90
1778;DHT22;886;50.082;8.222;2022-10-16T13:01:41;18.50;99.90
1778;DHT22;886;50.082;8.222;2022-10-16T13:04:34;18.60;99.90
1778;DHT22;886;50.082;8.222;2022-10-16T13:07:36;18.60;99.90
1778;DHT22;886;50.082;8.222;2022-10-16T13:10:28;18.60;99.90
1778;DHT22;886;50.082;8.222;2022-10-16T13:16:30;18.80;99.90
1778;DHT22;886;50.082;8.222;2022-10-16T13:19:10;18.80;99.90
1778;DHT22;886;50.082;8.222;2022-10-16T13:21:49;18.80;99.90
1778;DHT22;886;50.082;8.222;2022-10-16T13:24:32;18.90;99.90
1778;DHT22;886;50.082;8.222;2022-10-16T13:27:14;19.00;99.90
1778;DHT22;886;50.082;8.222;2022-10-16T13:29:52;18.90;99.90
1778;DHT22;886;50.082;8.222;2022-10-16T13:32:22;18.90;99.90
1778;DHT22;886;50.082;8.222;2022-10-16T13:34:55;18.80;99.90
1778;DHT22;886;50.082;8.222;2022-10-16T13:37:26;18.80;99.90
1778;DHT22;886;50.082;8.222;2022-10-16T13:40:19;18.80;99.90
1778;DHT22;886;50.082;8.222;2022-10-16T13:42:54;18.90;99.90
1778;DHT22;886;50.082;8.222;2022-10-16T13:45:24;18.80;99.90
1778;DHT22;886;50.082;8.222;2022-10-16T13:48:02;18.80;99.90
1778;DHT22;886;50.082;8.222;2022-10-16T13:50:32;18.90;99.90
1778;DHT22;886;50.082;8.222;2022-10-16T13:53:05;18.90;99.90
1778;DHT22;886;50.082;8.222;2022-10-16T13:55:33;18.90;99.90
1778;DHT22;886;50.082;8.222;2022-10-16T13:58:13;18.90;99.90
1778;DHT22;886;50.082;8.222;2022-10-16T14:00:53;18.90;99.90
1778;DHT22;886;50.082;8.222;2022-10-16T14:03:22;18.90;99.90
1778;DHT22;886;50.082;8.222;2022-10-16T14:05:51;19.00;99.90
1778;DHT22;886;50.082;8.222;2022-10-16T14:08:25;18.90;99.90
1778;DHT22;886;50.082;8.222;2022-10-16T14:10:55;18.90;99.90
1778;DHT22;886;50.082;8.222;2022-10-16T14:13:29;18.90;99.90
1778;DHT22;886;50.082;8.222;2022-10-16T14:16:06;18.90;99.90
1778;DHT22;886;50.082;8.222;2022-10-16T14:18:46;18.90;99.90
1778;DHT22;886;50.082;8.222;2022-10-16T14:21:25;19.00;99.90
1778;DHT22;886;50.082;8.222;2022-10-16T14:24:10;19.00;99.90
1778;DHT22;886;50.082;8.222;2022-10-16T14:26:42;19.10;99.90
1778;DHT22;886;50.082;8.222;2022-10-16T14:29:30;19.00;99.90
1778;DHT22;886;50.082;8.222;2022-10-16T14:31:59;19.10;99.90
1778;DHT22;886;50.082;8.222;2022-10-16T14:34:32;19.10;99.90
1778;DHT22;886;50.082;8.222;2022-10-16T14:37:05;19.10;99.90
1778;DHT22;886;50.082;8.222;2022-10-16T14:39:39;19.10;99.90
1778;DHT22;886;50.082;8.222;2022-10-16T14:42:14;19.10;99.90
1778;DHT22;886;50.082;8.222;2022-10-16T14:44:47;19.10;99.90
1778;DHT22;886;50.082;8.222;2022-10-16T14:47:20;19.10;99.90
1778;DHT22;886;50.082;8.222;2022-10-16T14:49:59;19.10;99.90
1778;DHT22;886;50.082;8.222;2022-10-16T14:52:29;19.10;99.90
1778;DHT22;886;50.082;8.222;2022-10-16T14:55:03;19.10;99.90
1778;DHT22;886;50.082;8.222;2022-10-16T14:57:33;19.10;99.90
1778;DHT22;886;50.082;8.222;2022-10-16T15:00:03;19.10;99.90
1778;DHT22;886;50.082;8.222;2022-10-16T15:02:36;19.00;99.90
1778;DHT22;886;50.082;8.222;2022-10-16T15:05:13;19.00;99.90
1778;DHT22;886;50.082;8.222;2022-10-16T15:07:48;19.10;99.90
1778;DHT22;886;50.082;8.222;2022-10-16T15:10:24;19.00;99.90
1778;DHT22;886;50.082;8.222;2022-10-16T15:12:53;19.00;99.90
1778;DHT22;886;50.082;8.222;2022-10-16T15:15:42;19.00;99.90
1778;DHT22;886;50.082;8.222;2022-10-16T15:18:22;19.00;99.90
1778;DHT22;886;50.082;8.222;2022-10-16T15:20:50;19.00;99.90
1778;DHT22;886;50.082;8.222;2022-10-16T15:23:19;19.10;99.90
1778;DHT22;886;50.082;8.222;2022-10-16T15:25:53;19.10;99.90
1778;DHT22;886;50.082;8.222;2022-10-16T15:28:24;19.00;99.90
1778;DHT22;886;50.082;8.222;2022-10-16T15:30:54;19.10;99.90
1778;DHT22;886;50.082;8.222;2022-10-16T15:33:24;19.10;99.90
1778;DHT22;886;50.082;8.222;2022-10-16T15:35:54;19.10;99.90
1778;DHT22;886;50.082;8.222;2022-10-16T15:38:23;19.00;99.90
1778;DHT22;886;50.082;8.222;2022-10-16T15:40:53;19.00;99.90
1778;DHT22;886;50.082;8.222;2022-10-16T15:43:20;19.00;99.90
1778;DHT22;886;50.082;8.222;2022-10-16T15:46:02;19.00;99.90
1778;DHT22;886;50.082;8.222;2022-10-16T15:48:34;18.90;99.90
1778;DHT22;886;50.082;8.222;2022-10-16T15:51:08;18.90;99.90
1778;DHT22;886;50.082;8.222;2022-10-16T15:53:35;18.90;99.90
1778;DHT22;886;50.082;8.222;2022-10-16T15:56:05;18.90;99.90
1778;DHT22;886;50.082;8.222;2022-10-16T15:58:33;18.90;99.90
1778;DHT22;886;50.082;8.222;2022-10-16T16:01:01;18.90;99.90
1778;DHT22;886;50.082;8.222;2022-10-16T16:03:30;18.90;99.90
1778;DHT22;886;50.082;8.222;2022-10-16T16:05:58;18.90;99.90
1778;DHT22;886;50.082;8.222;2022-10-16T16:08:34;18.80;99.90
1778;DHT22;886;50.082;8.222;2022-10-16T16:11:04;18.80;99.90
1778;DHT22;886;50.082;8.222;2022-10-16T16:13:32;18.80;99.90
1778;DHT22;886;50.082;8.222;2022-10-16T16:16:10;18.80;99.90
1778;DHT22;886;50.082;8.222;2022-10-16T16:18:38;18.70;99.90
1778;DHT22;886;50.082;8.222;2022-10-16T16:21:06;18.70;99.90
1778;DHT22;886;50.082;8.222;2022-10-16T16:23:36;18.70;99.90
1778;DHT22;886;50.082;8.222;2022-10-16T16:26:11;18.70;99.90
1778;DHT22;886;50.082;8.222;2022-10-16T16:28:40;18.60;99.90
1778;DHT22;886;50.082;8.222;2022-10-16T16:31:08;18.60;99.90
1778;DHT22;886;50.082;8.222;2022-10-16T16:33:41;18.50;99.90
1778;DHT22;886;50.082;8.222;2022-10-16T16:36:09;18.50;99.90
1778;DHT22;886;50.082;8.222;2022-10-16T16:38:41;18.50;99.90
1778;DHT22;886;50.082;8.222;2022-10-16T16:41:14;18.40;99.90
1778;DHT22;886;50.082;8.222;2022-10-16T16:43:47;18.40;99.90
1778;DHT22;886;50.082;8.222;2022-10-16T16:46:15;18.40;99.90
1778;DHT22;886;50.082;8.222;2022-10-16T16:48:54;18.40;99.90
1778;DHT22;886;50.082;8.222;2022-10-16T16:51:22;18.40;99.90
1778;DHT22;886;50.082;8.222;2022-10-16T16:53:50;18.30;99.90
1778;DHT22;886;50.082;8.222;2022-10-16T16:56:25;18.20;99.90
1778;DHT22;886;50.082;8.222;2022-10-16T16:58:56;18.20;99.90
1778;DHT22;886;50.082;8.222;2022-10-16T17:01:26;18.10;99.90
1778;DHT22;886;50.082;8.222;2022-10-16T17:03:58;18.00;99.90
1778;DHT22;886;50.082;8.222;2022-10-16T17:06:28;18.10;99.90
1778;DHT22;886;50.082;8.222;2022-10-16T17:09:00;18.10;99.90